Time;durP1;ratioP1;P1;durP2;ratioP2;P2;SDS_P1;SDS_P2;PMS_P1;PMS_P2;Temp;Humidity;BMP_temperature;BMP_pressure;BME280_temperature;BME280_humidity;BME280_pressure;Samples;Min_cycle;Max_cycle;Signal;HPM_P1;HPM_P2
2023/08/17 00:00:09;;;;;;;;;;;21.20;99.90;;;;;;5090976;28;20169;-70
2023/08/17 00:02:35;;;;;;;;;;;21.30;99.90;;;;;;5091650;28;19918;-69
2023/08/17 00:05:01;;;;;;;;;;;21.20;99.90;;;;;;5090193;28;19916;-69
2023/08/17 00:07:26;;;;;;;;;;;21.20;99.90;;;;;;5091162;28;20277;-69
2023/08/17 00:09:52;;;;;;;;;;;21.20;99.90;;;;;;5091593;28;20294;-70
2023/08/17 00:12:17;;;;;;;;;;;21.20;99.90;;;;;;5091635;28;20250;-69
2023/08/17 00:14:43;;;;;;;;;;;21.20;99.90;;;;;;5091113;28;19999;-69
2023/08/17 00:17:08;;;;;;;;;;;21.20;99.90;;;;;;5091304;28;19916;-70
2023/08/17 00:19:34;;;;;;;;;;;21.20;99.90;;;;;;5091018;28;19912;-69
2023/08/17 00:21:59;;;;;;;;;;;21.20;99.90;;;;;;5091512;28;19953;-70
2023/08/17 00:24:25;;;;;;;;;;;21.20;99.90;;;;;;5091360;28;19924;-68
2023/08/17 00:26:51;;;;;;;;;;;21.20;99.90;;;;;;5090991;28;19915;-69
2023/08/17 00:29:17;;;;;;;;;;;21.30;99.90;;;;;;5090893;28;19916;-70
2023/08/17 00:31:42;;;;;;;;;;;21.20;99.90;;;;;;5090985;28;20286;-69
2023/08/17 00:34:08;;;;;;;;;;;21.20;99.90;;;;;;5091402;28;20301;-70
2023/08/17 00:36:33;;;;;;;;;;;21.20;99.90;;;;;;5090935;28;19923;-69
2023/08/17 00:39:00;;;;;;;;;;;21.20;99.90;;;;;;5089922;28;19912;-69
2023/08/17 00:41:25;;;;;;;;;;;21.20;99.90;;;;;;5090823;28;19912;-69
2023/08/17 00:43:51;;;;;;;;;;;21.20;99.90;;;;;;5089695;28;19938;-68
2023/08/17 00:46:17;;;;;;;;;;;21.20;99.90;;;;;;5091107;28;19912;-69
2023/08/17 00:48:42;;;;;;;;;;;21.20;99.90;;;;;;5091151;28;20300;-70
2023/08/17 00:51:08;;;;;;;;;;;21.20;99.90;;;;;;5090981;28;20253;-69
2023/08/17 00:53:34;;;;;;;;;;;21.20;99.90;;;;;;5090773;28;19989;-70
2023/08/17 00:56:00;;;;;;;;;;;21.20;99.90;;;;;;5092394;28;19912;-70
2023/08/17 00:58:26;;;;;;;;;;;21.20;99.90;;;;;;5095022;28;19923;-69
2023/08/17 01:00:52;;;;;;;;;;;21.10;99.90;;;;;;5095274;28;19900;-70
2023/08/17 01:03:18;;;;;;;;;;;21.10;99.90;;;;;;5094646;28;19961;-70
2023/08/17 01:05:44;;;;;;;;;;;21.10;99.90;;;;;;5094558;28;20367;-69
2023/08/17 01:08:09;;;;;;;;;;;21.10;99.90;;;;;;5094893;28;19935;-69
2023/08/17 01:10:47;;;;;;;;;;;21.00;99.90;;;;;;5094465;28;20021;-70
2023/08/17 01:13:16;;;;;;;;;;;21.00;99.90;;;;;;5094899;28;20325;-69
2023/08/17 01:15:44;;;;;;;;;;;21.00;99.90;;;;;;5093742;28;19920;-69
2023/08/17 01:18:31;;;;;;;;;;;21.00;99.90;;;;;;5094630;28;19916;-70
2023/08/17 01:20:57;;;;;;;;;;;20.90;99.90;;;;;;5094277;28;19927;-69
2023/08/17 01:23:22;;;;;;;;;;;20.80;99.90;;;;;;5094261;28;19912;-69
2023/08/17 01:25:48;;;;;;;;;;;20.90;99.90;;;;;;5093050;28;19912;-69
2023/08/17 01:28:14;;;;;;;;;;;20.90;99.90;;;;;;5094620;28;20333;-69
2023/08/17 01:30:44;;;;;;;;;;;21.00;99.90;;;;;;5094304;28;19926;-70
2023/08/17 01:33:11;;;;;;;;;;;20.90;99.90;;;;;;5093890;28;20371;-70
2023/08/17 01:35:45;;;;;;;;;;;20.80;99.90;;;;;;5093988;28;19997;-70
2023/08/17 01:38:18;;;;;;;;;;;20.70;99.90;;;;;;5094424;28;19997;-70
2023/08/17 01:40:44;;;;;;;;;;;20.60;99.90;;;;;;5094475;28;20308;-70
2023/08/17 01:43:11;;;;;;;;;;;20.60;99.90;;;;;;5093683;28;20337;-70
2023/08/17 01:45:37;;;;;;;;;;;20.50;99.90;;;;;;5093814;28;19999;-70
2023/08/17 01:48:02;;;;;;;;;;;20.50;99.90;;;;;;5094017;28;20476;-70
2023/08/17 01:50:28;;;;;;;;;;;20.60;99.90;;;;;;5093583;28;19913;-71
2023/08/17 01:52:53;;;;;;;;;;;20.60;99.90;;;;;;5093623;28;19912;-70
2023/08/17 01:55:23;;;;;;;;;;;20.50;99.90;;;;;;5094701;28;19908;-70
2023/08/17 01:57:48;;;;;;;;;;;20.40;99.90;;;;;;5093619;28;20002;-70
2023/08/17 02:00:14;;;;;;;;;;;20.40;99.90;;;;;;5092505;28;20003;-70
2023/08/17 02:02:40;;;;;;;;;;;20.40;99.90;;;;;;5093485;28;20015;-71
2023/08/17 02:05:06;;;;;;;;;;;20.50;99.90;;;;;;5093576;28;20328;-70
2023/08/17 02:07:31;;;;;;;;;;;20.50;99.90;;;;;;5093109;28;19908;-71
2023/08/17 02:09:57;;;;;;;;;;;20.50;99.90;;;;;;5093791;28;19916;-71
2023/08/17 02:12:22;;;;;;;;;;;20.50;99.90;;;;;;5092413;28;19944;-70
2023/08/17 02:14:48;;;;;;;;;;;20.50;99.90;;;;;;5092355;28;19927;-70
2023/08/17 02:17:16;;;;;;;;;;;20.50;99.90;;;;;;5093416;28;20403;-70
2023/08/17 02:19:44;;;;;;;;;;;20.50;99.90;;;;;;5093346;28;19912;-70
2023/08/17 02:22:10;;;;;;;;;;;20.40;99.90;;;;;;5094160;28;20253;-70
2023/08/17 02:24:36;;;;;;;;;;;20.40;99.90;;;;;;5093608;28;19999;-69
2023/08/17 02:27:02;;;;;;;;;;;20.30;99.90;;;;;;5093463;28;19938;-70
2023/08/17 02:29:27;;;;;;;;;;;20.40;99.90;;;;;;5093102;28;20315;-70
2023/08/17 02:31:53;;;;;;;;;;;20.30;99.90;;;;;;5093222;28;20238;-69
2023/08/17 02:34:18;;;;;;;;;;;20.10;99.90;;;;;;5093288;28;19920;-70
2023/08/17 02:36:44;;;;;;;;;;;20.20;99.90;;;;;;5093233;28;20354;-69
2023/08/17 02:39:09;;;;;;;;;;;20.20;99.90;;;;;;5093118;28;20357;-70
2023/08/17 02:41:35;;;;;;;;;;;20.20;99.90;;;;;;5092936;28;20346;-69
2023/08/17 02:44:01;;;;;;;;;;;20.20;99.90;;;;;;5093020;28;19948;-69
2023/08/17 02:46:26;;;;;;;;;;;20.20;99.90;;;;;;5091673;28;20030;-69
2023/08/17 02:48:53;;;;;;;;;;;20.20;99.90;;;;;;5093221;28;19908;-70
2023/08/17 02:51:18;;;;;;;;;;;20.20;99.90;;;;;;5092754;28;20246;-70
2023/08/17 02:53:44;;;;;;;;;;;20.20;99.90;;;;;;5091754;28;19920;-69
2023/08/17 02:56:12;;;;;;;;;;;20.20;99.90;;;;;;5092454;28;19935;-69
2023/08/17 02:58:41;;;;;;;;;;;20.20;99.90;;;;;;5092386;28;19940;-70
2023/08/17 03:01:07;;;;;;;;;;;20.10;99.90;;;;;;5093191;28;19916;-70
2023/08/17 03:03:33;;;;;;;;;;;20.20;99.90;;;;;;5092746;28;19922;-71
2023/08/17 03:05:58;;;;;;;;;;;20.10;99.90;;;;;;5092339;28;20356;-71
2023/08/17 03:08:24;;;;;;;;;;;20.10;99.90;;;;;;5092422;28;19923;-70
2023/08/17 03:10:49;;;;;;;;;;;20.10;99.90;;;;;;5091281;28;19912;-70
2023/08/17 03:13:15;;;;;;;;;;;20.10;99.90;;;;;;5092656;28;20368;-70
2023/08/17 03:15:41;;;;;;;;;;;20.10;99.90;;;;;;5092246;28;19982;-70
2023/08/17 03:18:07;;;;;;;;;;;20.10;99.90;;;;;;5091301;28;19916;-70
2023/08/17 03:20:32;;;;;;;;;;;20.10;99.90;;;;;;5092107;28;20308;-70
2023/08/17 03:22:57;;;;;;;;;;;20.10;99.90;;;;;;5091915;28;20238;-70
2023/08/17 03:25:23;;;;;;;;;;;20.00;99.90;;;;;;5092472;28;19920;-70
2023/08/17 03:27:49;;;;;;;;;;;20.00;99.90;;;;;;5092411;28;19912;-69
2023/08/17 03:30:15;;;;;;;;;;;20.00;99.90;;;;;;5092159;28;19926;-70
2023/08/17 03:32:40;;;;;;;;;;;20.00;99.90;;;;;;5091665;28;19916;-70
2023/08/17 03:35:06;;;;;;;;;;;20.00;99.90;;;;;;5091622;28;19968;-70
2023/08/17 03:37:32;;;;;;;;;;;20.00;99.90;;;;;;5091811;28;20336;-70
2023/08/17 03:39:57;;;;;;;;;;;20.00;99.90;;;;;;5091218;28;19915;-70
2023/08/17 03:42:23;;;;;;;;;;;19.90;99.90;;;;;;5090801;28;19923;-70
2023/08/17 03:44:48;;;;;;;;;;;19.90;99.90;;;;;;5091720;28;19923;-70
2023/08/17 03:47:14;;;;;;;;;;;19.90;99.90;;;;;;5091835;28;20105;-70
2023/08/17 03:49:39;;;;;;;;;;;19.80;99.90;;;;;;5091576;28;19912;-70
2023/08/17 03:52:05;;;;;;;;;;;19.80;99.90;;;;;;5092095;28;19916;-70
2023/08/17 03:54:31;;;;;;;;;;;19.80;99.90;;;;;;5091453;28;20326;-71
2023/08/17 03:56:57;;;;;;;;;;;19.80;99.90;;;;;;5091597;28;20283;-70
2023/08/17 03:59:22;;;;;;;;;;;19.80;99.90;;;;;;5090327;28;19923;-70
2023/08/17 04:01:48;;;;;;;;;;;19.80;99.90;;;;;;5090208;28;19922;-70
2023/08/17 04:04:13;;;;;;;;;;;19.80;99.90;;;;;;5091684;28;20315;-70
2023/08/17 04:06:40;;;;;;;;;;;19.80;99.90;;;;;;5091338;28;19912;-70
2023/08/17 04:09:06;;;;;;;;;;;19.70;99.90;;;;;;5091138;28;19978;-70
2023/08/17 04:11:34;;;;;;;;;;;19.70;99.90;;;;;;5091077;28;20355;-71
2023/08/17 04:13:59;;;;;;;;;;;19.70;99.90;;;;;;5090893;28;19927;-70
2023/08/17 04:16:25;;;;;;;;;;;19.70;99.90;;;;;;5091523;28;19908;-70
2023/08/17 04:18:50;;;;;;;;;;;19.70;99.90;;;;;;5090089;28;19935;-70
2023/08/17 04:21:16;;;;;;;;;;;19.70;99.90;;;;;;5091179;28;19973;-70
2023/08/17 04:23:42;;;;;;;;;;;19.60;99.90;;;;;;5089998;28;19916;-70
2023/08/17 04:26:07;;;;;;;;;;;19.60;99.90;;;;;;5090890;28;19936;-70
2023/08/17 04:28:32;;;;;;;;;;;19.60;99.90;;;;;;5090590;28;20326;-71
2023/08/17 04:30:58;;;;;;;;;;;19.60;99.90;;;;;;5091067;28;19927;-70
2023/08/17 04:33:23;;;;;;;;;;;19.60;99.90;;;;;;5090693;28;20381;-70
2023/08/17 04:35:49;;;;;;;;;;;19.60;99.90;;;;;;5089503;28;19912;-70
2023/08/17 04:38:14;;;;;;;;;;;19.60;99.90;;;;;;5090774;28;19923;-70
2023/08/17 04:40:41;;;;;;;;;;;19.60;99.90;;;;;;5090903;28;20062;-71
2023/08/17 04:43:06;;;;;;;;;;;19.60;99.90;;;;;;5091210;28;19944;-71
2023/08/17 04:45:32;;;;;;;;;;;19.60;99.90;;;;;;5090679;28;19958;-70
2023/08/17 04:47:58;;;;;;;;;;;19.60;99.90;;;;;;5090642;28;19923;-71
2023/08/17 04:50:23;;;;;;;;;;;19.60;99.90;;;;;;5090780;28;19923;-70
2023/08/17 04:52:49;;;;;;;;;;;19.60;99.90;;;;;;5090602;28;19923;-70
2023/08/17 04:55:14;;;;;;;;;;;19.60;99.90;;;;;;5091115;28;20362;-71
2023/08/17 04:57:40;;;;;;;;;;;19.60;99.90;;;;;;5090743;28;20369;-70
2023/08/17 05:00:09;;;;;;;;;;;19.60;99.90;;;;;;5090593;28;19917;-70
2023/08/17 05:02:35;;;;;;;;;;;19.60;99.90;;;;;;5089876;28;19922;-71
2023/08/17 05:05:02;;;;;;;;;;;19.60;99.90;;;;;;5090410;28;19912;-71
2023/08/17 05:07:27;;;;;;;;;;;19.60;99.90;;;;;;5090391;28;19976;-71
2023/08/17 05:09:53;;;;;;;;;;;19.70;99.90;;;;;;5090846;28;20335;-70
2023/08/17 05:12:18;;;;;;;;;;;19.70;99.90;;;;;;5090436;28;20007;-71
2023/08/17 05:14:44;;;;;;;;;;;19.60;99.90;;;;;;5090155;28;19916;-70
2023/08/17 05:17:09;;;;;;;;;;;19.60;99.90;;;;;;5086129;28;19999;-69
2023/08/17 05:19:35;;;;;;;;;;;19.60;99.90;;;;;;5069957;28;19919;-70
2023/08/17 05:22:00;;;;;;;;;;;19.70;99.90;;;;;;5069482;28;19912;-71
2023/08/17 05:24:26;;;;;;;;;;;19.70;99.90;;;;;;5070191;28;19916;-70
2023/08/17 05:26:52;;;;;;;;;;;19.70;99.90;;;;;;5069958;28;19974;-70
2023/08/17 05:29:17;;;;;;;;;;;19.80;99.90;;;;;;5068944;28;20460;-69
2023/08/17 05:31:43;;;;;;;;;;;19.70;99.90;;;;;;5069939;28;20004;-70
2023/08/17 05:34:08;;;;;;;;;;;19.80;99.90;;;;;;5068920;28;19920;-69
2023/08/17 05:36:34;;;;;;;;;;;19.80;99.90;;;;;;5069892;28;19912;-73
2023/08/17 05:38:59;;;;;;;;;;;19.80;99.90;;;;;;5069744;28;20018;-71
2023/08/17 05:41:25;;;;;;;;;;;19.80;99.90;;;;;;5071376;28;19912;-70
2023/08/17 05:43:51;;;;;;;;;;;19.80;99.90;;;;;;5072198;28;20326;-71
2023/08/17 05:46:16;;;;;;;;;;;19.90;99.90;;;;;;5072790;28;19923;-69
2023/08/17 05:48:42;;;;;;;;;;;19.90;99.90;;;;;;5072096;28;19921;-69
2023/08/17 05:51:07;;;;;;;;;;;19.90;99.90;;;;;;5073268;28;19927;-69
2023/08/17 05:53:33;;;;;;;;;;;19.90;99.90;;;;;;5073198;28;20365;-69
2023/08/17 05:55:58;;;;;;;;;;;19.90;99.90;;;;;;5072056;28;20339;-69
2023/08/17 05:58:24;;;;;;;;;;;19.90;99.90;;;;;;5073622;28;19909;-69
2023/08/17 06:00:50;;;;;;;;;;;19.90;99.90;;;;;;5073168;28;19924;-69
2023/08/17 06:03:15;;;;;;;;;;;19.90;99.90;;;;;;5073429;28;20369;-70
2023/08/17 06:05:41;;;;;;;;;;;20.00;99.90;;;;;;5072202;28;19951;-70
2023/08/17 06:08:06;;;;;;;;;;;20.00;99.90;;;;;;5072914;28;19912;-70
2023/08/17 06:10:32;;;;;;;;;;;20.00;99.90;;;;;;5072870;28;19908;-70
2023/08/17 06:12:58;;;;;;;;;;;20.00;99.90;;;;;;5072356;28;19969;-70
2023/08/17 06:15:23;;;;;;;;;;;20.00;99.90;;;;;;5071864;28;19912;-70
2023/08/17 06:17:52;;;;;;;;;;;20.00;99.90;;;;;;5072869;28;19966;-69
2023/08/17 06:20:18;;;;;;;;;;;19.90;99.90;;;;;;5073067;28;19931;-69
2023/08/17 06:22:43;;;;;;;;;;;19.90;99.90;;;;;;5072739;28;19919;-69
2023/08/17 06:25:09;;;;;;;;;;;19.90;99.90;;;;;;5073085;28;19912;-69
2023/08/17 06:27:35;;;;;;;;;;;19.90;99.90;;;;;;5072750;28;20428;-70
2023/08/17 06:30:02;;;;;;;;;;;20.00;99.90;;;;;;5072670;28;19938;-69
2023/08/17 06:32:28;;;;;;;;;;;20.00;99.90;;;;;;5072538;28;19916;-69
2023/08/17 06:34:54;;;;;;;;;;;20.00;99.90;;;;;;5072259;28;20423;-69
2023/08/17 06:37:19;;;;;;;;;;;20.00;99.90;;;;;;5072921;28;20323;-70
2023/08/17 06:39:45;;;;;;;;;;;19.90;99.90;;;;;;5072839;28;20328;-69
2023/08/17 06:42:10;;;;;;;;;;;19.90;99.90;;;;;;5072640;28;19971;-71
2023/08/17 06:44:36;;;;;;;;;;;20.00;99.90;;;;;;5072432;28;19916;-70
2023/08/17 06:47:01;;;;;;;;;;;20.00;99.90;;;;;;5072491;28;19912;-71
2023/08/17 06:49:27;;;;;;;;;;;20.10;99.90;;;;;;5071166;28;19913;-72
2023/08/17 06:51:53;;;;;;;;;;;20.10;99.90;;;;;;5073162;28;19904;-71
2023/08/17 06:54:19;;;;;;;;;;;20.10;99.90;;;;;;5072114;28;20350;-71
2023/08/17 06:56:44;;;;;;;;;;;20.20;99.90;;;;;;5072323;28;20003;-74
2023/08/17 06:59:10;;;;;;;;;;;20.10;99.90;;;;;;5072417;28;19967;-75
2023/08/17 07:01:36;;;;;;;;;;;20.20;99.90;;;;;;5071232;28;19988;-75
2023/08/17 07:04:01;;;;;;;;;;;20.10;99.90;;;;;;5071651;28;19966;-75
2023/08/17 07:06:28;;;;;;;;;;;20.20;99.90;;;;;;5072629;28;19916;-75
2023/08/17 07:08:54;;;;;;;;;;;20.20;99.90;;;;;;5072659;28;19913;-75
2023/08/17 07:11:20;;;;;;;;;;;20.20;99.90;;;;;;5071801;28;20015;-76
2023/08/17 07:13:45;;;;;;;;;;;20.20;99.90;;;;;;5072064;28;19936;-76
2023/08/17 07:16:12;;;;;;;;;;;20.20;99.90;;;;;;5072875;28;19923;-75
2023/08/17 07:18:38;;;;;;;;;;;20.20;99.90;;;;;;5072708;28;19927;-75
2023/08/17 07:21:03;;;;;;;;;;;20.30;99.90;;;;;;5072569;28;19912;-76
2023/08/17 07:23:29;;;;;;;;;;;20.20;99.90;;;;;;5071865;28;19912;-74
2023/08/17 07:25:54;;;;;;;;;;;20.20;99.90;;;;;;5070341;28;20228;-76
2023/08/17 07:28:20;;;;;;;;;;;20.30;99.90;;;;;;5071126;28;20007;-74
2023/08/17 07:30:45;;;;;;;;;;;20.30;99.90;;;;;;5071842;28;20052;-74
2023/08/17 07:33:11;;;;;;;;;;;20.30;99.90;;;;;;5071551;28;19928;-74
2023/08/17 07:35:36;;;;;;;;;;;20.30;99.90;;;;;;5071572;28;20009;-75
2023/08/17 07:38:02;;;;;;;;;;;20.30;99.90;;;;;;5071618;28;19912;-73
2023/08/17 07:40:28;;;;;;;;;;;20.30;99.90;;;;;;5071623;28;19912;-73
2023/08/17 07:42:53;;;;;;;;;;;20.30;99.90;;;;;;5071645;28;20350;-73
2023/08/17 07:45:19;;;;;;;;;;;20.30;99.90;;;;;;5071408;28;19912;-72
2023/08/17 07:47:44;;;;;;;;;;;20.30;99.90;;;;;;5071589;28;20289;-72
2023/08/17 07:50:10;;;;;;;;;;;20.20;99.90;;;;;;5071125;28;19916;-75
2023/08/17 07:52:35;;;;;;;;;;;20.20;99.90;;;;;;5071426;28;20274;-73
2023/08/17 07:55:01;;;;;;;;;;;20.20;99.90;;;;;;5070630;28;20233;-76
2023/08/17 07:57:27;;;;;;;;;;;20.20;99.90;;;;;;5071228;28;19917;-76
2023/08/17 07:59:53;;;;;;;;;;;20.20;99.90;;;;;;5071313;28;19912;-74
2023/08/17 08:02:19;;;;;;;;;;;20.20;99.90;;;;;;5071235;28;19912;-75
2023/08/17 08:04:44;;;;;;;;;;;20.20;99.90;;;;;;5070599;28;19908;-73
2023/08/17 08:07:10;;;;;;;;;;;20.20;99.90;;;;;;5071922;28;20330;-75
2023/08/17 08:09:36;;;;;;;;;;;20.20;99.90;;;;;;5086800;28;19916;-75
2023/08/17 08:12:02;;;;;;;;;;;20.20;99.90;;;;;;5071297;28;19985;-75
2023/08/17 08:14:27;;;;;;;;;;;20.20;99.90;;;;;;5069831;28;20003;-75
2023/08/17 08:16:53;;;;;;;;;;;20.20;99.90;;;;;;5069816;28;20258;-74
2023/08/17 08:19:18;;;;;;;;;;;20.20;99.90;;;;;;5071366;28;19908;-76
2023/08/17 08:21:44;;;;;;;;;;;20.20;99.90;;;;;;5086743;28;20291;-73
2023/08/17 08:24:09;;;;;;;;;;;20.20;99.90;;;;;;5070915;28;20366;-74
2023/08/17 08:26:35;;;;;;;;;;;20.20;99.90;;;;;;5070888;28;19992;-74
2023/08/17 08:29:01;;;;;;;;;;;20.20;99.90;;;;;;5071019;28;19916;-74
2023/08/17 08:31:26;;;;;;;;;;;20.20;99.90;;;;;;5071076;28;19922;-74
2023/08/17 08:33:52;;;;;;;;;;;20.20;99.90;;;;;;5071285;28;19982;-75
2023/08/17 08:36:18;;;;;;;;;;;20.30;99.90;;;;;;5086520;28;19916;-74
2023/08/17 08:38:43;;;;;;;;;;;20.30;99.90;;;;;;5070865;28;19913;-76
2023/08/17 08:41:09;;;;;;;;;;;20.20;99.90;;;;;;5070400;28;20326;-73
2023/08/17 08:43:35;;;;;;;;;;;20.20;99.90;;;;;;5070472;28;19912;-73
2023/08/17 08:46:01;;;;;;;;;;;20.30;99.90;;;;;;5071112;28;20261;-71
2023/08/17 08:48:27;;;;;;;;;;;20.30;99.90;;;;;;5070875;28;19938;-72
2023/08/17 08:50:54;;;;;;;;;;;20.30;99.90;;;;;;5070075;28;20406;-71
2023/08/17 08:53:24;;;;;;;;;;;20.30;99.90;;;;;;5070348;28;20396;-72
2023/08/17 08:55:55;;;;;;;;;;;20.30;99.90;;;;;;5070531;28;19920;-74
2023/08/17 08:58:21;;;;;;;;;;;20.30;99.90;;;;;;5071163;28;19944;-74
2023/08/17 09:00:47;;;;;;;;;;;20.30;99.90;;;;;;5070481;28;19916;-73
2023/08/17 09:03:14;;;;;;;;;;;20.30;99.90;;;;;;5070512;28;20015;-74
2023/08/17 09:05:40;;;;;;;;;;;20.30;99.90;;;;;;5070243;28;19912;-73
2023/08/17 09:08:08;;;;;;;;;;;20.30;99.90;;;;;;5069094;28;19992;-72
2023/08/17 09:10:33;;;;;;;;;;;20.40;99.90;;;;;;5085969;28;20261;-73
2023/08/17 09:12:59;;;;;;;;;;;20.40;99.90;;;;;;5070623;28;20096;-74
2023/08/17 09:15:25;;;;;;;;;;;20.40;99.90;;;;;;5070280;28;20235;-71
2023/08/17 09:17:50;;;;;;;;;;;20.40;99.90;;;;;;5074089;28;19991;-73
2023/08/17 09:20:35;;;;;;;;;;;20.40;99.90;;;;;;5074242;28;19917;-71
2023/08/17 09:23:03;;;;;;;;;;;20.40;99.90;;;;;;5072813;28;19973;-73
2023/08/17 09:25:28;;;;;;;;;;;20.30;99.90;;;;;;5073364;28;19931;-71
2023/08/17 09:27:54;;;;;;;;;;;20.30;99.90;;;;;;5074695;28;19905;-73
2023/08/17 09:30:20;;;;;;;;;;;20.30;99.90;;;;;;5074062;28;20368;-74
2023/08/17 09:32:47;;;;;;;;;;;20.30;99.90;;;;;;5072699;28;19916;-74
2023/08/17 09:35:12;;;;;;;;;;;20.30;99.90;;;;;;5073895;28;19928;-76
2023/08/17 09:37:38;;;;;;;;;;;20.40;99.90;;;;;;5072898;28;19912;-77
2023/08/17 09:40:04;;;;;;;;;;;20.30;99.90;;;;;;5074598;28;19908;-76
2023/08/17 09:42:31;;;;;;;;;;;20.30;99.90;;;;;;5072554;28;20297;-75
2023/08/17 09:44:57;;;;;;;;;;;20.40;99.90;;;;;;5074036;28;20342;-77
2023/08/17 09:47:23;;;;;;;;;;;20.40;99.90;;;;;;5073701;28;20236;-74
2023/08/17 09:49:49;;;;;;;;;;;20.40;99.90;;;;;;5073487;28;20003;-73
2023/08/17 09:52:15;;;;;;;;;;;20.30;99.90;;;;;;5073063;28;19923;-71
2023/08/17 09:54:41;;;;;;;;;;;20.30;99.90;;;;;;5073870;28;19920;-74
2023/08/17 09:57:07;;;;;;;;;;;20.30;99.90;;;;;;5072407;28;20268;-71
2023/08/17 09:59:32;;;;;;;;;;;20.20;99.90;;;;;;5073307;28;19917;-72
2023/08/17 10:01:59;;;;;;;;;;;20.20;99.90;;;;;;5072151;28;19986;-70
2023/08/17 10:04:26;;;;;;;;;;;20.20;99.90;;;;;;5073831;28;19909;-70
2023/08/17 10:06:53;;;;;;;;;;;20.20;99.90;;;;;;5089414;28;19920;-74
2023/08/17 10:09:25;;;;;;;;;;;20.10;99.90;;;;;;5075731;28;20260;-73
2023/08/17 10:11:51;;;;;;;;;;;20.20;99.90;;;;;;5094717;28;19913;-73
2023/08/17 10:14:19;;;;;;;;;;;20.20;99.90;;;;;;5094356;28;19923;-75
2023/08/17 10:16:45;;;;;;;;;;;20.20;99.90;;;;;;5095455;28;19918;-75
2023/08/17 10:19:29;;;;;;;;;;;20.20;99.90;;;;;;5096508;28;20038;-72
2023/08/17 10:22:01;;;;;;;;;;;20.20;99.90;;;;;;5096644;28;20003;-73
2023/08/17 10:24:27;;;;;;;;;;;20.30;99.90;;;;;;5094398;28;19947;-72
2023/08/17 10:26:52;;;;;;;;;;;20.10;99.90;;;;;;5093631;28;19955;-73
2023/08/17 10:29:19;;;;;;;;;;;20.20;99.90;;;;;;5094044;28;19951;-73
2023/08/17 10:31:46;;;;;;;;;;;20.20;99.90;;;;;;5093551;28;19957;-71
2023/08/17 10:34:12;;;;;;;;;;;20.30;99.90;;;;;;5093286;28;19963;-72
2023/08/17 10:36:38;;;;;;;;;;;20.20;99.90;;;;;;5093064;28;20255;-72
2023/08/17 10:39:23;;;;;;;;;;;20.30;99.90;;;;;;5092354;28;19912;-71
2023/08/17 10:41:49;;;;;;;;;;;20.30;99.90;;;;;;5092578;28;19920;-72
2023/08/17 10:44:17;;;;;;;;;;;20.20;99.90;;;;;;5092364;28;19945;-72
2023/08/17 10:46:45;;;;;;;;;;;20.20;99.90;;;;;;5092446;28;19912;-71
2023/08/17 10:49:26;;;;;;;;;;;20.20;99.90;;;;;;5092867;28;20401;-72
2023/08/17 10:52:04;;;;;;;;;;;20.30;99.90;;;;;;5092613;28;20330;-73
2023/08/17 10:54:37;;;;;;;;;;;20.30;99.90;;;;;;5092635;28;19943;-74
2023/08/17 10:57:21;;;;;;;;;;;20.30;99.90;;;;;;5092559;28;19995;-73
2023/08/17 11:00:05;;;;;;;;;;;20.20;99.90;;;;;;5092346;28;19916;-73
2023/08/17 11:02:34;;;;;;;;;;;20.20;99.90;;;;;;5091072;28;20377;-76
2023/08/17 11:05:04;;;;;;;;;;;20.20;99.90;;;;;;5090959;28;19970;-72
2023/08/17 11:07:39;;;;;;;;;;;20.30;99.90;;;;;;5092060;28;19909;-72
2023/08/17 11:10:12;;;;;;;;;;;20.20;99.90;;;;;;5092543;28;20222;-73
2023/08/17 11:12:40;;;;;;;;;;;20.10;99.90;;;;;;5090653;28;19927;-72
2023/08/17 11:15:06;;;;;;;;;;;20.10;99.90;;;;;;5090661;28;20354;-73
2023/08/17 11:17:32;;;;;;;;;;;20.10;99.90;;;;;;5091492;28;19952;-73
2023/08/17 11:19:57;;;;;;;;;;;20.10;99.90;;;;;;5091717;28;19916;-78
2023/08/17 11:22:23;;;;;;;;;;;20.10;99.90;;;;;;5091787;28;19908;-76
2023/08/17 11:24:48;;;;;;;;;;;20.10;99.90;;;;;;5091546;28;19973;-73
2023/08/17 11:27:14;;;;;;;;;;;20.10;99.90;;;;;;5091436;28;19912;-72
2023/08/17 11:29:39;;;;;;;;;;;20.10;99.90;;;;;;5091327;28;20065;-72
2023/08/17 11:32:05;;;;;;;;;;;20.10;99.90;;;;;;5091167;28;19984;-75
2023/08/17 11:34:31;;;;;;;;;;;20.00;99.90;;;;;;5089934;28;19963;-76
2023/08/17 11:36:57;;;;;;;;;;;20.00;99.90;;;;;;5092079;28;19919;-76
2023/08/17 11:39:22;;;;;;;;;;;20.00;99.90;;;;;;5090919;28;19912;-77
2023/08/17 11:41:48;;;;;;;;;;;19.90;99.90;;;;;;5091534;28;19999;-78
2023/08/17 11:44:14;;;;;;;;;;;20.00;99.90;;;;;;5091527;28;19920;-76
2023/08/17 11:46:40;;;;;;;;;;;19.90;99.90;;;;;;5091215;28;20006;-77
2023/08/17 11:49:06;;;;;;;;;;;20.00;99.90;;;;;;5091731;28;19919;-76
2023/08/17 11:51:32;;;;;;;;;;;19.90;99.90;;;;;;5091266;28;19912;-79
2023/08/17 11:54:02;;;;;;;;;;;19.90;99.90;;;;;;5090366;28;20402;-79
2023/08/17 11:56:28;;;;;;;;;;;19.90;99.90;;;;;;5089758;28;20495;-76
2023/08/17 11:58:54;;;;;;;;;;;19.90;99.90;;;;;;5091294;28;20334;-78
2023/08/17 12:01:19;;;;;;;;;;;19.90;99.90;;;;;;5090306;28;20027;-80
2023/08/17 12:03:45;;;;;;;;;;;19.90;99.90;;;;;;5090964;28;19939;-76
2023/08/17 12:06:12;;;;;;;;;;;19.90;99.90;;;;;;5091265;28;19973;-73
2023/08/17 12:08:38;;;;;;;;;;;20.00;99.90;;;;;;5091181;28;19916;-78
2023/08/17 12:11:03;;;;;;;;;;;20.00;99.90;;;;;;5090033;28;19935;-74
2023/08/17 12:13:33;;;;;;;;;;;20.00;99.90;;;;;;5090956;28;19950;-74
2023/08/17 12:15:59;;;;;;;;;;;20.00;99.90;;;;;;5091612;28;19961;-73
2023/08/17 12:18:25;;;;;;;;;;;20.00;99.90;;;;;;5091068;28;19916;-74
2023/08/17 12:20:54;;;;;;;;;;;20.10;99.90;;;;;;5091134;28;19991;-71
2023/08/17 12:23:19;;;;;;;;;;;20.10;99.90;;;;;;5089873;28;19912;-74
2023/08/17 12:25:45;;;;;;;;;;;20.10;99.90;;;;;;5090859;28;19943;-72
2023/08/17 12:28:13;;;;;;;;;;;20.10;99.90;;;;;;5091263;28;19912;-73
2023/08/17 12:30:39;;;;;;;;;;;20.10;99.90;;;;;;5090871;28;19985;-72
2023/08/17 12:33:04;;;;;;;;;;;20.10;99.90;;;;;;5089598;28;19923;-72
2023/08/17 12:35:31;;;;;;;;;;;20.20;99.90;;;;;;5090495;28;20345;-72
2023/08/17 12:37:57;;;;;;;;;;;20.20;99.90;;;;;;5090810;28;20270;-72
2023/08/17 12:40:22;;;;;;;;;;;20.20;99.90;;;;;;5091030;28;20352;-72
2023/08/17 12:42:48;;;;;;;;;;;20.20;99.90;;;;;;5089881;28;20020;-76
2023/08/17 12:45:15;;;;;;;;;;;20.10;99.90;;;;;;5090867;28;19912;-78
2023/08/17 12:47:41;;;;;;;;;;;20.20;99.90;;;;;;5090786;28;19919;-76
2023/08/17 12:50:06;;;;;;;;;;;20.10;99.90;;;;;;5092184;28;20357;-77
2023/08/17 12:52:32;;;;;;;;;;;20.10;99.90;;;;;;5095023;28;20362;-73
2023/08/17 12:54:57;;;;;;;;;;;20.10;99.90;;;;;;5095200;28;19916;-76
2023/08/17 12:57:23;;;;;;;;;;;20.00;99.90;;;;;;5094708;28;19912;-76
2023/08/17 12:59:49;;;;;;;;;;;20.10;99.90;;;;;;5094724;28;19912;-74
2023/08/17 13:02:14;;;;;;;;;;;20.10;99.90;;;;;;5093545;28;20289;-74
2023/08/17 13:04:40;;;;;;;;;;;20.10;99.90;;;;;;5094726;28;20438;-73
2023/08/17 13:07:05;;;;;;;;;;;20.10;99.90;;;;;;5095430;28;19908;-74
2023/08/17 13:09:31;;;;;;;;;;;20.10;99.90;;;;;;5094542;28;19924;-78
2023/08/17 13:11:57;;;;;;;;;;;20.10;99.90;;;;;;5094607;28;19969;-75
2023/08/17 13:14:22;;;;;;;;;;;20.10;99.90;;;;;;5094294;28;20396;-75
2023/08/17 13:16:51;;;;;;;;;;;20.20;99.90;;;;;;5094152;28;19977;-74
2023/08/17 13:19:17;;;;;;;;;;;20.20;99.90;;;;;;5093733;28;19923;-74
2023/08/17 13:21:43;;;;;;;;;;;20.10;99.90;;;;;;5093534;28;20234;-74
2023/08/17 13:24:08;;;;;;;;;;;20.20;99.90;;;;;;5093249;28;20003;-75
2023/08/17 13:26:34;;;;;;;;;;;20.20;99.90;;;;;;5093312;28;19912;-75
2023/08/17 13:29:00;;;;;;;;;;;20.20;99.90;;;;;;5094247;28;19948;-76
2023/08/17 13:31:25;;;;;;;;;;;20.20;99.90;;;;;;5093107;28;20011;-73
2023/08/17 13:33:51;;;;;;;;;;;20.10;99.90;;;;;;5094642;28;19981;-74
2023/08/17 13:36:17;;;;;;;;;;;20.20;99.90;;;;;;5094401;28;19926;-71
2023/08/17 13:38:43;;;;;;;;;;;20.20;99.90;;;;;;5094064;28;19927;-71
2023/08/17 13:41:08;;;;;;;;;;;20.30;99.90;;;;;;5094145;28;19920;-72
2023/08/17 13:43:34;;;;;;;;;;;20.10;99.90;;;;;;5094036;28;19912;-71
2023/08/17 13:46:00;;;;;;;;;;;20.20;99.90;;;;;;5093511;28;20175;-73
2023/08/17 13:48:25;;;;;;;;;;;20.20;99.90;;;;;;5093970;28;19924;-72
2023/08/17 13:50:51;;;;;;;;;;;20.20;99.90;;;;;;5092903;28;19931;-71
2023/08/17 13:53:17;;;;;;;;;;;20.20;99.90;;;;;;5094053;28;20038;-70
2023/08/17 13:55:42;;;;;;;;;;;20.30;99.90;;;;;;5093650;28;19923;-71
2023/08/17 13:58:10;;;;;;;;;;;20.30;99.90;;;;;;5093142;28;19942;-72
2023/08/17 14:00:35;;;;;;;;;;;20.20;99.90;;;;;;5093857;28;19919;-71
2023/08/17 14:03:01;;;;;;;;;;;20.20;99.90;;;;;;5092950;28;19916;-71
2023/08/17 14:05:27;;;;;;;;;;;20.20;99.90;;;;;;5093414;28;19912;-71
2023/08/17 14:07:53;;;;;;;;;;;20.20;99.90;;;;;;5093394;28;20235;-72
2023/08/17 14:10:18;;;;;;;;;;;20.30;99.90;;;;;;5092803;28;20011;-71